Weather Models
Both GFS & NAM
00z 06z 12z 18z
24hr Precip
00z 06z 12z 18z
36hr Simulated radar
00z 06z 12z 18z
SKEWT Soundings
00z 12z
Current Conditions (Updated 3:10pm on 7/25/21)
Temperature
 93°
0.40
95°  
73°  
0
10
20
30
40
50
60
70
80
90
100
Dew Point
67°
68°  
56°  
-20
-10
0
10
20
30
40
50
60
70
80
Heat Index
97°
99°  
76°  
30
40
50
60
70
80
90
100
110
120
130
Heat Index
Humidity
43%
71% 
41% 
0
10
20
30
40
50
60
70
80
90
100
Barometer
29.90
   Steady
30.04  
29.90  
28.00
28.30
28.60
28.90
29.20
29.50
29.80
30.10
30.40
30.70
31.00
Temperature
Dew Point
Humidity
Pressure
Wind
13mph
WSW
Daily Rain
.00
.05
.10
.15
.20
.25
.30
.35
.40
.45
.50
Rain Today
 0.00" 
Month Rain
0.00
1.00
2.00
3.00
4.00
5.00
6.00
7.00
8.00
9.00
10.00
Month Rain
 7.48" 
Year Rain
0.00
1.00
2.00
3.00
4.00
5.00
6.00
7.00
8.00
9.00
10.00
Year Rain
 7.83" 
Sun & Moon Data
Sunrise 5:54am
Sunset 8:22pm
Moonrise 9:55pm
Moonset 7:17am
Moon % 98%
Other Rain Data
Past Hour 0.00 Past 24 Hours 0.00
Past 3 Hours 0.00 Past 7 Days 0.30
Past 6 Hours 0.00
Cloud Height
6442


7 Day Forecast
NWS Forecast for Philadelphia PA
National Weather Service Forecast for: Philadelphia PA
Issued by: National Weather Service Philadelphia, PA
Updated: 1:11 pm EDT Jul 25, 2021

Philadelphia PA.
 
This
Afternoon
This Afternoon: A chance of showers and thunderstorms, mainly after 3pm.  Partly sunny, with a high near 89. Southwest wind around 10 mph.  Chance of precipitation is 30%. New rainfall amounts of less than a tenth of an inch, except higher amounts possible in thunderstorms.
Chance
T-storms

Tonight

Tonight: A chance of showers and thunderstorms, mainly before 11pm.  Mostly cloudy, with a low around 74. Southwest wind around 5 mph.  Chance of precipitation is 30%. New rainfall amounts of less than a tenth of an inch, except higher amounts possible in thunderstorms.
Chance
T-storms

Monday

Monday: A slight chance of showers and thunderstorms after 2pm.  Partly sunny, with a high near 91. Calm wind becoming northwest around 5 mph in the afternoon.  Chance of precipitation is 20%.
Partly Sunny
then Slight
Chance
T-storms
Monday
Night
Monday Night: Mostly clear, with a low around 71. Northwest wind around 5 mph becoming calm  in the evening.
Mostly Clear

Tuesday

Tuesday: Sunny, with a high near 92. West wind around 5 mph.
Sunny

Tuesday
Night
Tuesday Night: Partly cloudy, with a low around 71.
Partly Cloudy

Wednesday

Wednesday: Mostly sunny, with a high near 90.
Mostly Sunny

Wednesday
Night
Wednesday Night: Partly cloudy, with a low around 70.
Partly Cloudy

Thursday

Thursday: A chance of showers and thunderstorms after 2pm.  Partly sunny, with a high near 90. Chance of precipitation is 40%.
Partly Sunny
then Chance
T-storms
Hi 89 °F Lo 74 °F Hi 91 °F Lo 71 °F Hi 92 °F Lo 71 °F Hi 90 °F Lo 70 °F Hi 90 °F

 

This Afternoon
 
A chance of showers and thunderstorms, mainly after 3pm. Partly sunny, with a high near 89. Southwest wind around 10 mph. Chance of precipitation is 30%. New rainfall amounts of less than a tenth of an inch, except higher amounts possible in thunderstorms.
Tonight
 
A chance of showers and thunderstorms, mainly before 11pm. Mostly cloudy, with a low around 74. Southwest wind around 5 mph. Chance of precipitation is 30%. New rainfall amounts of less than a tenth of an inch, except higher amounts possible in thunderstorms.
Monday
 
A slight chance of showers and thunderstorms after 2pm. Partly sunny, with a high near 91. Calm wind becoming northwest around 5 mph in the afternoon. Chance of precipitation is 20%.
Monday Night
 
Mostly clear, with a low around 71. Northwest wind around 5 mph becoming calm in the evening.
Tuesday
 
Sunny, with a high near 92. West wind around 5 mph.
Tuesday Night
 
Partly cloudy, with a low around 71.
Wednesday
 
Mostly sunny, with a high near 90.
Wednesday Night
 
Partly cloudy, with a low around 70.
Thursday
 
A chance of showers and thunderstorms after 2pm. Partly sunny, with a high near 90. Chance of precipitation is 40%.
Thursday Night
 
A chance of showers and thunderstorms before 8pm, then a chance of showers between 8pm and 2am. Mostly cloudy, with a low around 69. Chance of precipitation is 30%.
Friday
 
Mostly sunny, with a high near 86.
Friday Night
 
Mostly clear, with a low around 65.
Saturday
 
Sunny, with a high near 88.

 

Forecast from NOAA-NWS for Philadelphia PA.

Current Front Map
Current Radar
Area Weather Current Conditions
Nearby METAR Reports

KPHL - Philadelphia, Pennsylvania
Updated: Sun, 25-Jul-2021 2:54pm EDT
Mostly Cloudy
Mostly Cloudy
 Wind from SSW
Wind: SSW 12 mph , 19 km/h
Temperature: 88°F , 31°C
Heat Index: 95°F , 35°C
Dew Point: 72°F , 22°C
Humidity: 59%
Barometer: 29.88 inHg , 1011.9 hPa
Clouds: Mostly Cloudy
Visibility: 10 miles , 16 km
Cloud details: Partly Cloudy 3400 ft
Mostly Cloudy 13000 ft
Mostly Cloudy 25000 ft
2021/07/25 18:54 KPHL 251854Z 21010KT 10SM SCT034 BKN130 BKN250 31/22 A2988 RMK AO2 SLP116 T03060217
KMPO - Mt. Pocono, Pennsylvania
Updated: Sun, 25-Jul-2021 2:53pm EDT
Mostly Cloudy
Mostly Cloudy
 Wind from WSW
Wind: WSW 10 mph , 17 km/h
Temperature: 79°F , 26°C
Dew Point: 66°F , 19°C
Humidity: 65%
Barometer: 29.94 inHg , 1013.9 hPa
Clouds: Mostly Cloudy
Visibility: 10 miles , 16 km
Cloud details: Mostly Cloudy 3000 ft
2021/07/25 18:53 KMPO 251853Z AUTO 25009KT 10SM BKN030 26/19 A2994 RMK AO2 SLP125 T02610194
 
KACY - Atlantic City, New Jersey
Updated: Sun, 25-Jul-2021 2:54pm EDT
Few Clouds
Few Clouds
 Wind from SW
Wind: SW 15 mph , 24 km/h, Gust: 21 mph , 33 km/h
Temperature: 86°F , 30°C
Heat Index: 92°F , 33°C
Dew Point: 72°F , 22°C
Humidity: 62%
Barometer: 29.91 inHg , 1012.9 hPa
Clouds: Few Clouds
Visibility: 10 miles , 16 km
Cloud details: Few Clouds 2900 ft
2021/07/25 18:54 KACY 251854Z AUTO 22013G18KT 10SM FEW029 30/22 A2991 RMK AO2 SLP126 T03000217 PWINO TSNO $
KMIV - Millville, New Jersey
Updated: Sun, 25-Jul-2021 2:54pm EDT
Few Clouds
Few Clouds
 Wind from varies
Wind: varies 7 mph , 11 km/h, Gust: 17 mph , 28 km/h
Temperature: 84°F , 29°C
Heat Index: 88°F , 31°C
Dew Point: 70°F , 21°C
Humidity: 62%
Barometer: 29.90 inHg , 1012.5 hPa
Clouds: Few Clouds
Visibility: 10 miles , 16 km
Cloud details: Few Clouds 2800 ft
2021/07/25 18:54 KMIV 251854Z AUTO VRB06G15KT 10SM FEW028 29/21 A2990 RMK AO2 SLP124 T02940211
 
KWWD - Wildwood, New Jersey
Updated: Sun, 25-Jul-2021 2:56pm EDT
Clear
Clear
 Wind from S
Wind: S 13 mph , 20 km/h
Temperature: 84°F , 29°C
Heat Index: 90°F , 32°C
Dew Point: 73°F , 23°C
Humidity: 70%
Barometer: 29.93 inHg , 1013.5 hPa
Clouds: Clear
Visibility: 10 miles , 16 km
2021/07/25 18:56 KWWD 251856Z AUTO 19011KT 10SM CLR 29/23 A2993 RMK AO2 SLP136 T02890228 $
KDOV - Dover Afb, Delaware
Updated: Sun, 25-Jul-2021 2:56pm EDT
Partly Cloudy
Partly Cloudy
 Wind from SW
Wind: SW 10 mph , 17 km/h
Temperature: 86°F , 30°C
Heat Index: 92°F , 33°C
Dew Point: 72°F , 22°C
Humidity: 62%
Barometer: 29.89 inHg , 1012.2 hPa
Clouds: Partly Cloudy
Visibility: 10 miles , 16 km
Cloud details: Few Clouds 3100 ft
Partly Cloudy 19000 ft
2021/07/25 18:56 KDOV 251856Z AUTO 22009KT 10SM FEW031 SCT190 30/22 A2989 RMK AO2 SLP125 T03000221 $
Severe Weather Map